Time;durP1;ratioP1;P1;durP2;ratioP2;P2;SDS_P1;SDS_P2;PMS_P1;PMS_P2;Temp;Humidity;BMP_temperature;BMP_pressure;BME280_temperature;BME280_humidity;BME280_pressure;Samples;Min_cycle;Max_cycle;Signal;HPM_P1;HPM_P2
2020/12/13 15:18:35;;;;;;;10.85;3.17;;;;;;;;;;5090018;27;20372;-73
2020/12/13 15:21:01;;;;;;;9.77;3.40;;;;;;;;;;5089871;28;20031;-73
2020/12/13 15:23:27;;;;;;;11.07;3.47;;;;;;;;;;5089492;28;20017;-73
2020/12/13 15:25:53;;;;;;;9.48;3.00;;;;;;;;;;5089920;28;20012;-73
2020/12/13 15:28:19;;;;;;;12.88;3.85;;;;;;;;;;5089338;28;20024;-81
2020/12/13 15:30:45;;;;;;;14.30;4.03;;;;;;;;;;5089671;28;20440;-79
2020/12/13 15:33:11;;;;;;;9.35;3.45;;;;;;;;;;5089650;28;20013;-78
2020/12/13 15:35:38;;;;;;;12.98;5.07;;;;;;;;;;5088118;28;20027;-78
2020/12/13 15:38:08;;;;;;;8.88;3.67;;;;;;;;;;5088131;28;20062;-78
2020/12/13 15:40:34;;;;;;;13.60;4.68;;;;;;;;;;5088049;28;20025;-79
2020/12/13 15:43:00;;;;;;;7.10;3.20;;;;;;;;;;5088295;28;20032;-79
2020/12/13 15:45:26;;;;;;;9.98;3.72;;;;;;;;;;5087806;28;20023;-79
2020/12/13 15:47:52;;;;;;;10.73;3.63;;;;;;;;;;5088079;28;20020;-79
2020/12/13 15:50:19;;;;;;;12.65;4.68;;;;;;;;;;5089635;28;20364;-79
2020/12/13 15:52:45;;;;;;;12.10;4.10;;;;;;;;;;5089302;28;20028;-79
2020/12/13 15:55:11;;;;;;;12.90;4.47;;;;;;;;;;5089189;28;20016;-79
2020/12/13 15:57:37;;;;;;;11.40;4.82;;;;;;;;;;5087471;28;20488;-79
2020/12/13 16:00:04;;;;;;;13.77;3.90;;;;;;;;;;5087861;28;20055;-79
2020/12/13 16:02:30;;;;;;;11.32;4.45;;;;;;;;;;5087627;28;20039;-78
2020/12/13 16:05:08;;;;;;;16.02;5.47;;;;;;;;;;5089044;28;20449;-78
2020/12/13 16:07:38;;;;;;;11.10;4.60;;;;;;;;;;5088932;28;20027;-79
2020/12/13 16:10:04;;;;;;;12.15;4.63;;;;;;;;;;5087582;28;20448;-78
2020/12/13 16:12:30;;;;;;;13.32;4.85;;;;;;;;;;5087403;28;20047;-78
2020/12/13 16:14:58;;;;;;;14.73;4.72;;;;;;;;;;5088574;28;20020;-77
2020/12/13 16:17:24;;;;;;;9.55;3.75;;;;;;;;;;5088089;28;20055;-77
2020/12/13 16:19:50;;;;;;;15.85;4.30;;;;;;;;;;5087337;28;20017;-77
2020/12/13 16:22:16;;;;;;;11.13;5.00;;;;;;;;;;5087281;28;20334;-77
2020/12/13 16:24:42;;;;;;;9.63;3.83;;;;;;;;;;5087925;28;20449;-74
2020/12/13 16:27:08;;;;;;;15.90;4.88;;;;;;;;;;5087175;28;20032;-76
2020/12/13 16:29:34;;;;;;;12.63;3.72;;;;;;;;;;5075742;28;20480;-76
2020/12/13 16:32:00;;;;;;;10.65;5.03;;;;;;;;;;5074891;28;20020;-76
2020/12/13 16:34:26;;;;;;;15.55;5.18;;;;;;;;;;5073100;28;20425;-76
2020/12/13 16:36:53;;;;;;;11.73;3.65;;;;;;;;;;5073548;28;20017;-77
2020/12/13 16:39:29;;;;;;;13.00;3.72;;;;;;;;;;5073432;28;20028;-76
2020/12/13 16:41:59;;;;;;;14.52;4.22;;;;;;;;;;5075277;28;20021;-76
2020/12/13 16:44:33;;;;;;;16.20;3.63;;;;;;;;;;5073245;28;20101;-77
2020/12/13 16:46:59;;;;;;;12.85;4.30;;;;;;;;;;5073430;28;20373;-77
2020/12/13 16:54:46;;;;;;;8.55;3.42;;;;;;;;;;5080683;28;20151;-75
2020/12/13 16:57:12;;;;;;;10.05;3.80;;;;;;;;;;5074587;28;20107;-75
2020/12/13 16:59:38;;;;;;;13.95;4.15;;;;;;;;;;5074197;28;20487;-75
2020/12/13 17:02:04;;;;;;;14.90;3.88;;;;;;;;;;5074375;28;20043;-73
2020/12/13 17:04:30;;;;;;;16.63;4.97;;;;;;;;;;5073929;28;20453;-73
2020/12/13 17:06:56;;;;;;;18.25;4.82;;;;;;;;;;5073085;28;20029;-73
2020/12/13 17:09:22;;;;;;;12.80;4.22;;;;;;;;;;5074306;28;20020;-73
2020/12/13 17:11:48;;;;;;;8.80;3.28;;;;;;;;;;5072875;28;20062;-74
2020/12/13 17:14:16;;;;;;;13.63;4.95;;;;;;;;;;5074287;28;20032;-74
2020/12/13 17:16:46;;;;;;;10.95;5.30;;;;;;;;;;5073593;28;20044;-74
2020/12/13 17:19:12;;;;;;;;;;;;;;;;;;5074682;28;20100;-74
2020/12/13 17:21:38;;;;;;;11.63;4.38;;;;;;;;;;5072539;28;19943;-74
2020/12/13 17:24:04;;;;;;;14.57;3.63;;;;;;;;;;5072644;28;20052;-73
2020/12/13 17:26:30;;;;;;;10.30;3.83;;;;;;;;;;5073746;28;20028;-74
2020/12/13 17:28:57;;;;;;;21.83;4.13;;;;;;;;;;5073904;28;20023;-73
2020/12/13 17:31:28;;;;;;;11.07;3.53;;;;;;;;;;5073899;28;20021;-73
2020/12/13 17:33:54;;;;;;;;;;;;;;;;;;5073050;28;20429;-73
2020/12/13 17:36:20;;;;;;;13.77;4.47;;;;;;;;;;5073806;28;19931;-73
2020/12/13 17:38:47;;;;;;;18.25;5.68;;;;;;;;;;5072276;28;20390;-73
2020/12/13 17:41:13;;;;;;;9.35;3.17;;;;;;;;;;5072685;28;20020;-73
2020/12/13 17:43:51;;;;;;;7.47;3.10;;;;;;;;;;5073561;28;20027;-73
2020/12/13 17:46:17;;;;;;;10.23;3.33;;;;;;;;;;5073765;28;20480;-73
2020/12/13 17:48:43;;;;;;;11.38;3.40;;;;;;;;;;5073397;28;20048;-73
2020/12/13 17:51:24;;;;;;;13.68;3.90;;;;;;;;;;5073566;28;20019;-73
2020/12/13 17:54:01;;;;;;;11.93;4.15;;;;;;;;;;5073384;28;20023;-73
2020/12/13 17:56:38;;;;;;;12.43;3.50;;;;;;;;;;5071883;28;20025;-73
2020/12/13 17:59:10;;;;;;;11.90;4.07;;;;;;;;;;5073527;28;20214;-73
2020/12/13 18:01:36;;;;;;;13.07;4.20;;;;;;;;;;5071855;28;20020;-73
2020/12/13 18:04:03;;;;;;;13.50;4.55;;;;;;;;;;5073299;28;20016;-73
2020/12/13 18:06:29;;;;;;;11.82;4.15;;;;;;;;;;5072966;28;20013;-73
2020/12/13 18:08:55;;;;;;;9.80;3.78;;;;;;;;;;5073231;28;20032;-73
2020/12/13 18:11:21;;;;;;;11.27;4.18;;;;;;;;;;5071848;28;20024;-73
2020/12/13 18:13:49;;;;;;;13.50;4.22;;;;;;;;;;5071635;28;20027;-73
2020/12/13 18:16:15;;;;;;;13.15;4.20;;;;;;;;;;5072822;28;20016;-73
2020/12/13 18:18:41;;;;;;;10.77;3.88;;;;;;;;;;5072765;28;20013;-73
2020/12/13 18:21:10;;;;;;;13.60;4.57;;;;;;;;;;5072665;28;20039;-73
2020/12/13 18:23:40;;;;;;;12.50;4.22;;;;;;;;;;5072706;28;20357;-73
2020/12/13 18:26:08;;;;;;;11.20;4.70;;;;;;;;;;5072703;28;20480;-73
2020/12/13 18:28:34;;;;;;;12.02;4.40;;;;;;;;;;5072470;28;20017;-73
2020/12/13 18:31:00;;;;;;;14.23;4.63;;;;;;;;;;5071501;28;20020;-73
2020/12/13 18:33:26;;;;;;;10.20;4.07;;;;;;;;;;5071466;28;20039;-73
2020/12/13 18:35:54;;;;;;;9.75;4.05;;;;;;;;;;5072545;28;20020;-73
2020/12/13 18:38:20;;;;;;;14.07;4.53;;;;;;;;;;5072642;28;20070;-73
2020/12/13 18:40:46;;;;;;;10.98;4.07;;;;;;;;;;5071204;28;20074;-73
2020/12/13 18:43:13;;;;;;;11.63;3.92;;;;;;;;;;5072691;28;20010;-73
2020/12/13 18:45:40;;;;;;;13.23;4.57;;;;;;;;;;5072406;28;20437;-73
2020/12/13 18:48:06;;;;;;;12.85;5.80;;;;;;;;;;5071296;28;20446;-73
2020/12/13 18:50:44;;;;;;;13.68;4.65;;;;;;;;;;5071970;28;20028;-73
2020/12/13 18:53:10;;;;;;;10.50;3.38;;;;;;;;;;5072229;28;20013;-73
2020/12/13 18:55:36;;;;;;;12.88;3.67;;;;;;;;;;5072183;28;20025;-73
2020/12/13 18:58:02;;;;;;;10.35;3.50;;;;;;;;;;5072298;28;20027;-73
2020/12/13 19:00:28;;;;;;;8.18;3.50;;;;;;;;;;5072116;28;20099;-73
2020/12/13 19:03:13;;;;;;;12.25;4.03;;;;;;;;;;5071729;28;20016;-73
2020/12/13 19:05:40;;;;;;;10.93;3.88;;;;;;;;;;5072087;28;20096;-73
2020/12/13 19:08:08;;;;;;;9.73;3.40;;;;;;;;;;5070936;28;20021;-72
2020/12/13 19:10:34;;;;;;;8.35;3.10;;;;;;;;;;5072034;28;20024;-72
2020/12/13 19:13:00;;;;;;;13.52;4.68;;;;;;;;;;5072025;28;20078;-73
2020/12/13 19:15:27;;;;;;;12.70;4.10;;;;;;;;;;5071971;28;20016;-72
2020/12/13 19:17:53;;;;;;;20.33;5.95;;;;;;;;;;5070374;28;20045;-73
2020/12/13 19:20:20;;;;;;;9.23;3.63;;;;;;;;;;5072183;28;20104;-73
2020/12/13 19:22:46;;;;;;;8.88;3.95;;;;;;;;;;5070599;28;20028;-73
2020/12/13 19:25:12;;;;;;;9.60;3.67;;;;;;;;;;5071708;28;20019;-73
2020/12/13 19:27:38;;;;;;;10.10;3.75;;;;;;;;;;5071913;28;20483;-73
2020/12/13 19:30:05;;;;;;;10.95;3.83;;;;;;;;;;5072056;28;20017;-73
2020/12/13 19:32:31;;;;;;;8.65;3.55;;;;;;;;;;5070745;28;20027;-73
2020/12/13 19:34:58;;;;;;;11.52;3.70;;;;;;;;;;5072157;28;20020;-73
2020/12/13 19:37:24;;;;;;;11.98;4.03;;;;;;;;;;5071956;28;20056;-73
2020/12/13 19:39:51;;;;;;;10.80;3.80;;;;;;;;;;5071673;28;20020;-73
2020/12/13 19:42:17;;;;;;;8.30;4.40;;;;;;;;;;5072076;28;20029;-73
2020/12/13 19:44:43;;;;;;;10.25;4.60;;;;;;;;;;5071700;28;20038;-74
2020/12/13 19:47:11;;;;;;;13.18;3.80;;;;;;;;;;5071934;28;20020;-74
2020/12/13 19:49:40;;;;;;;12.13;3.67;;;;;;;;;;5070340;28;20021;-73
2020/12/13 19:52:07;;;;;;;12.55;3.72;;;;;;;;;;5071931;28;20021;-74
2020/12/13 19:54:33;;;;;;;13.55;4.30;;;;;;;;;;5070445;28;20047;-74
2020/12/13 19:57:05;;;;;;;10.73;3.55;;;;;;;;;;5071473;28;20364;-73
2020/12/13 19:59:31;;;;;;;12.60;3.53;;;;;;;;;;5071772;28;20019;-73
2020/12/13 20:01:57;;;;;;;8.75;3.15;;;;;;;;;;5071581;28;20024;-73
2020/12/13 20:04:23;;;;;;;11.38;3.33;;;;;;;;;;5072532;28;20023;-73
2020/12/13 20:06:52;;;;;;;10.65;3.30;;;;;;;;;;5074032;28;20055;-73
2020/12/13 20:09:18;;;;;;;9.00;2.88;;;;;;;;;;5074224;28;20419;-73
2020/12/13 20:11:44;;;;;;;12.02;3.13;;;;;;;;;;5075262;28;20020;-73
2020/12/13 20:17:16;;;;;;;10.25;3.47;;;;;;;;;;5074963;28;20479;-73
2020/12/13 20:20:42;;;;;;;7.90;3.58;;;;;;;;;;5075364;28;20020;-74
2020/12/13 20:25:42;;;;;;;9.07;3.75;;;;;;;;;;5075077;28;20504;-73
2020/12/13 20:29:25;;;;;;;8.30;3.30;;;;;;;;;;5073822;28;20070;-73
2020/12/13 21:11:21;;;;;;;8.70;3.15;;;;;;;;;;5074295;28;20082;-72
2020/12/13 21:18:30;;;;;;;9.77;3.20;;;;;;;;;;5074264;28;20550;-73
2020/12/13 21:20:59;;;;;;;10.82;4.82;;;;;;;;;;5073935;28;20027;-72
2020/12/13 21:23:35;;;;;;;14.20;4.18;;;;;;;;;;5074118;28;20463;-72
2020/12/13 21:29:16;;;;;;;8.40;3.28;;;;;;;;;;5073496;28;20519;-72
2020/12/13 21:32:24;;;;;;;10.32;3.75;;;;;;;;;;5073260;28;20035;-73
2020/12/13 21:45:28;;;;;;;11.52;3.67;;;;;;;;;;5073476;28;20035;-73
2020/12/13 21:48:20;;;;;;;12.30;5.05;;;;;;;;;;5073435;28;20059;-73
2020/12/13 21:53:30;;;;;;;8.70;3.25;;;;;;;;;;5073251;28;20078;-73
2020/12/13 21:56:20;;;;;;;7.93;3.15;;;;;;;;;;5073260;28;20019;-73
2020/12/13 21:58:54;;;;;;;6.47;3.33;;;;;;;;;;5073207;28;20028;-73
2020/12/13 22:28:27;;;;;;;9.70;3.05;;;;;;;;;;5061829;28;20035;-73
2020/12/13 22:30:53;;;;;;;12.80;3.85;;;;;;;;;;5059074;28;20135;-73
2020/12/13 22:33:19;;;;;;;8.52;3.03;;;;;;;;;;5060460;28;20410;-73
2020/12/13 22:35:45;;;;;;;8.98;3.20;;;;;;;;;;5066173;28;20364;-73
2020/12/13 22:38:11;;;;;;;10.02;3.50;;;;;;;;;;5071996;28;20498;-73
2020/12/13 22:40:37;;;;;;;11.23;2.53;;;;;;;;;;5071713;28;20145;-73
2020/12/13 22:43:03;;;;;;;9.32;3.50;;;;;;;;;;5072183;28;20346;-73
2020/12/13 22:45:29;;;;;;;9.65;3.92;;;;;;;;;;5070657;28;20052;-73
2020/12/13 22:47:55;;;;;;;8.65;3.80;;;;;;;;;;5071750;28;20067;-73
2020/12/13 22:50:21;;;;;;;7.72;2.88;;;;;;;;;;5071945;28;20417;-73
2020/12/13 22:52:47;;;;;;;7.32;3.28;;;;;;;;;;5071701;28;20106;-73
2020/12/13 22:55:13;;;;;;;10.77;3.67;;;;;;;;;;5070659;28;20021;-73
2020/12/13 22:57:39;;;;;;;11.18;3.42;;;;;;;;;;5070435;28;20365;-73
2020/12/13 23:00:10;;;;;;;12.98;3.97;;;;;;;;;;5071886;28;20025;-73
2020/12/13 23:02:38;;;;;;;10.52;3.13;;;;;;;;;;5071741;28;20472;-73
2020/12/13 23:05:04;;;;;;;8.23;2.67;;;;;;;;;;5071408;28;20072;-73
2020/12/13 23:07:30;;;;;;;9.05;2.95;;;;;;;;;;5071764;28;20614;-73
2020/12/13 23:09:56;;;;;;;13.90;3.22;;;;;;;;;;5071596;28;20073;-73
2020/12/13 23:12:22;;;;;;;9.90;2.78;;;;;;;;;;5071578;28;20388;-73
2020/12/13 23:14:48;;;;;;;9.15;2.38;;;;;;;;;;5071464;28;20024;-73
2020/12/13 23:17:14;;;;;;;9.88;3.92;;;;;;;;;;5071382;28;20040;-73
2020/12/13 23:19:40;;;;;;;7.82;2.40;;;;;;;;;;5071572;28;20017;-73
2020/12/13 23:22:06;;;;;;;11.02;2.97;;;;;;;;;;5071359;28;20062;-73
2020/12/13 23:24:32;;;;;;;10.25;3.65;;;;;;;;;;5064706;28;20365;-73
2020/12/13 23:26:58;;;;;;;8.48;3.53;;;;;;;;;;5051291;28;20029;-73
2020/12/13 23:29:24;;;;;;;9.13;3.53;;;;;;;;;;5051147;28;20342;-73
2020/12/13 23:31:50;;;;;;;11.90;3.17;;;;;;;;;;5051298;28;20027;-73
2020/12/13 23:34:16;;;;;;;10.80;3.70;;;;;;;;;;5051295;28;20024;-73
2020/12/13 23:36:42;;;;;;;8.75;2.38;;;;;;;;;;5049685;28;20037;-74
2020/12/13 23:39:08;;;;;;;5.75;2.55;;;;;;;;;;5054924;28;20098;-73
2020/12/13 23:41:35;;;;;;;12.05;2.60;;;;;;;;;;5055826;28;20059;-74
2020/12/13 23:44:01;;;;;;;7.32;2.58;;;;;;;;;;5054009;28;20417;-72
2020/12/13 23:46:27;;;;;;;8.05;2.85;;;;;;;;;;5055418;28;20123;-72
2020/12/13 23:48:53;;;;;;;9.98;2.95;;;;;;;;;;5053845;28;20152;-73
2020/12/13 23:51:19;;;;;;;10.00;2.67;;;;;;;;;;5055287;28;20048;-73
2020/12/13 23:53:46;;;;;;;7.78;2.83;;;;;;;;;;5053592;28;20064;-73
2020/12/13 23:56:12;;;;;;;8.90;3.08;;;;;;;;;;5053883;28;20019;-73
2020/12/13 23:58:38;;;;;;;8.68;2.65;;;;;;;;;;5055215;28;20033;-74
